Time;durP1;ratioP1;P1;durP2;ratioP2;P2;SDS_P1;SDS_P2;PMS_P1;PMS_P2;Temp;Humidity;BMP_temperature;BMP_pressure;BME280_temperature;BME280_humidity;BME280_pressure;Samples;Min_cycle;Max_cycle;Signal;HPM_P1;HPM_P2
2021/05/21 00:00:30;;;;;;;1.55;1.05;;;;;;;26.43;20.65;98230.56;5083365;28;20074;-92
2021/05/21 00:02:57;;;;;;;1.67;1.10;;;;;;;26.37;20.32;98237.97;5085859;28;20032;-92
2021/05/21 00:05:24;;;;;;;2.47;1.17;;;;;;;26.21;20.89;98235.22;5087362;28;20056;-92
2021/05/21 00:07:50;;;;;;;2.22;1.05;;;;;;;26.28;20.53;98235.03;5079181;28;20039;-93
2021/05/21 00:10:16;;;;;;;2.55;1.08;;;;;;;26.45;20.50;98237.31;5079504;28;20051;-93
2021/05/21 00:12:42;;;;;;;1.55;1.13;;;;;;;26.67;19.97;98235.47;5078993;28;20089;-92
2021/05/21 00:15:09;;;;;;;2.05;1.30;;;;;;;26.76;19.77;98237.63;5087393;28;20044;-93
2021/05/21 00:17:35;;;;;;;3.58;0.93;;;;;;;26.69;20.00;98227.34;5090443;28;20055;-92
2021/05/21 00:20:03;;;;;;;2.10;1.05;;;;;;;26.73;19.69;98233.66;5084180;28;20040;-93
2021/05/21 00:22:29;;;;;;;2.25;1.17;;;;;;;26.46;19.81;98233.28;5080381;28;20013;-92
2021/05/21 00:24:55;;;;;;;6.18;1.25;;;;;;;26.41;19.99;98221.75;5079513;28;20503;-93
2021/05/21 00:27:21;;;;;;;1.20;0.90;;;;;;;26.35;20.41;98224.31;5078431;28;20397;-92
2021/05/21 00:29:47;;;;;;;2.40;1.20;;;;;;;26.19;20.32;98224.38;5083062;28;20115;-93
2021/05/21 00:32:14;;;;;;;1.90;1.02;;;;;;;26.12;20.33;98218.97;5082800;28;20025;-92
2021/05/21 00:34:40;;;;;;;2.75;1.20;;;;;;;26.33;20.43;98221.16;5088473;28;20053;-92
2021/05/21 00:37:06;;;;;;;1.23;0.90;;;;;;;26.30;20.63;98218.47;5087085;28;23803;-92
2021/05/21 00:39:32;;;;;;;5.57;1.20;;;;;;;26.30;20.48;98216.44;5082158;28;20039;-92
2021/05/21 00:41:58;;;;;;;1.60;0.90;;;;;;;26.20;20.68;98217.53;5087050;28;20039;-92
2021/05/21 00:44:24;;;;;;;1.98;1.33;;;;;;;26.15;20.48;98217.28;5088899;28;20500;-92
2021/05/21 00:46:50;;;;;;;1.70;1.33;;;;;;;26.38;20.37;98217.81;5090864;28;20047;-92
2021/05/21 00:49:19;;;;;;;2.50;1.05;;;;;;;26.70;20.06;98214.81;5090779;28;20552;-92
2021/05/21 00:51:46;;;;;;;1.58;0.95;;;;;;;26.86;19.76;98219.63;5083214;28;20028;-92
2021/05/21 00:54:19;;;;;;;1.67;0.77;;;;;;;26.80;19.63;98221.41;5084414;28;20716;-91
2021/05/21 00:56:46;;;;;;;2.50;1.30;;;;;;;26.39;20.10;98215.78;5092938;28;20063;-92
2021/05/21 00:59:14;;;;;;;1.75;1.35;;;;;;;26.03;20.79;98215.97;5086245;28;20032;-93
2021/05/21 01:01:40;;;;;;;1.10;0.82;;;;;;;26.24;20.69;98208.97;5084707;28;20110;-93
2021/05/21 01:04:06;;;;;;;1.52;1.10;;;;;;;26.50;19.84;98216.25;5085001;28;20174;-93
2021/05/21 01:06:33;;;;;;;0.80;0.75;;;;;;;26.68;19.61;98217.31;5087196;28;20121;-93
2021/05/21 01:08:59;;;;;;;1.92;1.00;;;;;;;26.78;19.59;98209.81;5087713;28;20391;-93
2021/05/21 01:11:28;;;;;;;2.60;0.90;;;;;;;26.71;19.58;98202.34;5086858;28;20024;-93
2021/05/21 01:13:54;;;;;;;0.82;0.80;;;;;;;26.62;19.50;98207.84;5084905;28;20035;-92
2021/05/21 01:16:20;;;;;;;2.85;1.05;;;;;;;26.53;19.69;98204.91;5088555;28;20502;-93
2021/05/21 01:18:46;;;;;;;1.30;1.13;;;;;;;26.62;19.65;98193.75;5090420;28;20040;-92
2021/05/21 01:21:13;;;;;;;1.50;1.15;;;;;;;26.49;19.70;98195.00;5083718;28;20028;-92
2021/05/21 01:23:39;;;;;;;1.73;1.20;;;;;;;26.46;19.77;98191.03;5081821;28;20049;-92
2021/05/21 01:26:05;;;;;;;2.90;1.38;;;;;;;26.24;19.99;98195.69;5083635;28;20065;-92
2021/05/21 01:28:31;;;;;;;2.92;1.25;;;;;;;25.97;20.52;98198.06;5085916;28;20081;-92
2021/05/21 01:30:57;;;;;;;1.85;1.38;;;;;;;25.80;21.16;98200.13;5085704;28;20491;-92
2021/05/21 01:33:24;;;;;;;3.70;1.27;;;;;;;25.70;20.99;98197.59;5085363;28;20395;-93
2021/05/21 01:35:51;;;;;;;2.13;1.15;;;;;;;25.54;21.06;98198.41;5087051;28;20048;-92
2021/05/21 01:38:17;;;;;;;2.63;0.90;;;;;;;25.86;20.92;98194.72;5084022;28;20032;-92
2021/05/21 01:40:45;;;;;;;1.02;0.90;;;;;;;25.85;20.68;98195.97;5087853;28;20028;-92
2021/05/21 01:43:12;;;;;;;2.05;1.25;;;;;;;25.70;20.79;98194.78;5082969;28;20129;-93
2021/05/21 01:45:41;;;;;;;1.13;1.02;;;;;;;25.82;20.69;98197.66;5083788;28;20116;-92
2021/05/21 01:48:11;;;;;;;1.60;0.80;;;;;;;26.11;20.44;98191.28;5083921;28;20052;-92
2021/05/21 01:50:38;;;;;;;2.45;0.98;;;;;;;26.33;20.02;98195.03;5096579;28;20055;-92
2021/05/21 01:53:04;;;;;;;1.05;0.80;;;;;;;26.51;19.49;98198.91;5084735;28;20028;-92
2021/05/21 01:55:31;;;;;;;2.00;1.10;;;;;;;26.54;19.56;98186.75;5086656;28;20035;-92
2021/05/21 01:57:57;;;;;;;1.65;1.13;;;;;;;26.42;19.71;98183.94;5085350;28;20032;-91
2021/05/21 02:00:23;;;;;;;3.15;1.42;;;;;;;26.49;19.56;98190.13;5088886;28;20036;-92
2021/05/21 02:02:49;;;;;;;1.08;0.90;;;;;;;26.39;20.07;98188.44;5084524;28;20046;-92
2021/05/21 02:05:15;;;;;;;1.73;0.82;;;;;;;26.20;19.95;98183.75;5082905;28;20498;-91
2021/05/21 02:07:41;;;;;;;1.95;0.85;;;;;;;26.37;20.24;98182.44;5085558;28;20035;-92
2021/05/21 02:10:09;;;;;;;1.50;0.98;;;;;;;26.34;19.81;98180.53;5085074;28;20166;-91
2021/05/21 02:12:36;;;;;;;1.02;0.93;;;;;;;26.29;19.68;98175.44;5086629;28;20677;-92
2021/05/21 02:15:08;;;;;;;1.35;0.95;;;;;;;25.98;20.20;98175.09;5086380;28;20040;-92
2021/05/21 02:17:34;;;;;;;2.17;1.00;;;;;;;25.96;20.33;98180.38;5084947;28;20048;-91
2021/05/21 02:20:02;;;;;;;1.30;0.85;;;;;;;26.09;20.31;98177.63;5088884;28;20068;-91
2021/05/21 02:22:29;;;;;;;1.65;0.95;;;;;;;26.25;19.78;98185.25;5083358;28;20028;-91
2021/05/21 02:24:57;;;;;;;0.85;0.75;;;;;;;26.47;19.35;98174.91;5084887;28;20368;-91
2021/05/21 02:27:25;;;;;;;1.80;0.80;;;;;;;26.54;19.08;98183.94;5082915;28;20032;-91
2021/05/21 02:29:51;;;;;;;0.57;0.55;;;;;;;26.59;19.87;98176.97;5084562;28;20051;-91
2021/05/21 02:32:18;;;;;;;1.88;1.27;;;;;;;26.34;19.89;98172.09;5084382;28;20031;-91
2021/05/21 02:34:44;;;;;;;1.98;1.02;;;;;;;26.17;19.94;98181.84;5085529;28;20038;-91
2021/05/21 02:37:11;;;;;;;1.15;0.90;;;;;;;26.01;20.04;98171.41;5083521;28;20024;-91
2021/05/21 02:39:37;;;;;;;0.98;0.88;;;;;;;26.23;19.81;98180.06;5085456;28;20038;-92
2021/05/21 02:42:05;;;;;;;2.10;1.05;;;;;;;26.50;19.70;98171.22;5085982;28;20036;-91
2021/05/21 02:44:31;;;;;;;2.53;0.98;;;;;;;26.33;19.89;98176.13;5085509;28;20323;-91
2021/05/21 02:46:57;;;;;;;1.90;0.85;;;;;;;26.49;19.54;98172.47;5084833;28;20036;-91
2021/05/21 02:49:23;;;;;;;1.40;1.02;;;;;;;26.46;19.93;98188.22;5085334;28;20122;-92
2021/05/21 02:51:51;;;;;;;1.10;0.90;;;;;;;26.18;19.81;98186.25;5083519;28;20039;-92
2021/05/21 02:54:17;;;;;;;0.85;0.80;;;;;;;26.12;20.18;98182.38;5079924;28;20130;-92
2021/05/21 02:56:44;;;;;;;2.45;1.17;;;;;;;26.15;20.15;98183.50;5088432;28;20029;-92
2021/05/21 02:59:10;;;;;;;2.17;0.98;;;;;;;26.28;19.90;98189.97;5086714;28;20036;-91
2021/05/21 03:01:37;;;;;;;1.38;1.02;;;;;;;26.42;19.80;98189.56;5081795;28;20039;-92
2021/05/21 03:04:03;;;;;;;1.30;0.90;;;;;;;26.52;19.63;98180.78;5085841;28;20033;-92
2021/05/21 03:06:29;;;;;;;1.10;0.85;;;;;;;26.75;19.61;98182.53;5085006;28;20036;-92
2021/05/21 03:08:55;;;;;;;1.30;0.82;;;;;;;26.89;18.89;98175.66;5082468;28;20036;-91
2021/05/21 03:11:21;;;;;;;2.25;0.93;;;;;;;26.51;19.34;98190.47;5084547;28;20047;-92
2021/05/21 03:13:47;;;;;;;1.15;1.08;;;;;;;26.17;19.68;98184.66;5080642;28;20034;-90
2021/05/21 03:16:14;;;;;;;2.00;0.85;;;;;;;26.19;19.67;98187.81;5083999;28;20047;-91
2021/05/21 03:18:40;;;;;;;0.90;0.70;;;;;;;26.32;19.62;98185.81;5080273;28;20384;-91
2021/05/21 03:21:07;;;;;;;1.20;0.77;;;;;;;26.46;19.70;98174.16;5083291;28;20036;-92
2021/05/21 03:23:33;;;;;;;0.90;0.70;;;;;;;26.72;19.55;98169.34;5081742;28;20024;-91
2021/05/21 03:25:59;;;;;;;0.93;0.80;;;;;;;26.97;19.10;98171.38;5085228;28;20040;-90
2021/05/21 03:28:26;;;;;;;1.75;0.70;;;;;;;27.02;19.70;98173.63;5086321;28;20036;-91
2021/05/21 03:30:52;;;;;;;2.20;1.00;;;;;;;27.06;19.93;98169.47;5081850;28;20036;-91
2021/05/21 03:33:18;;;;;;;1.42;0.98;;;;;;;26.78;20.05;98169.56;5081963;28;20381;-91
2021/05/21 03:35:44;;;;;;;0.90;0.80;;;;;;;26.88;19.81;98163.63;5079738;28;20083;-91
2021/05/21 03:38:10;;;;;;;4.30;1.10;;;;;;;27.18;20.26;98168.66;5085060;28;20551;-91
2021/05/21 03:40:38;;;;;;;1.38;0.98;;;;;;;27.34;20.05;98153.63;5086234;28;20032;-91
2021/05/21 03:43:05;;;;;;;1.13;0.90;;;;;;;27.38;21.18;98155.09;5085147;28;20024;-92
2021/05/21 03:45:32;;;;;;;1.85;1.10;;;;;;;27.34;20.98;98148.78;5087814;28;20039;-91
2021/05/21 03:47:58;;;;;;;1.33;1.00;;;;;;;27.21;20.72;98153.63;5082835;28;20040;-91
2021/05/21 03:50:24;;;;;;;1.55;1.27;;;;;;;27.28;20.70;98152.63;5085936;28;20496;-91
2021/05/21 03:52:51;;;;;;;1.70;0.98;;;;;;;27.69;20.40;98152.44;5081145;28;20119;-90
2021/05/21 03:55:19;;;;;;;0.80;0.80;;;;;;;28.17;19.74;98155.97;5084443;28;20036;-89
2021/05/21 03:57:45;;;;;;;1.27;1.00;;;;;;;28.46;19.43;98165.72;5083608;28;20082;-91
2021/05/21 04:00:14;;;;;;;1.85;0.93;;;;;;;28.48;19.62;98162.44;5086752;28;20949;-91
2021/05/21 04:02:41;;;;;;;3.83;1.40;;;;;;;28.38;19.78;98164.41;5083259;28;20028;-91
2021/05/21 04:05:07;;;;;;;2.25;1.10;;;;;;;28.13;20.71;98164.56;5085541;28;20036;-92
2021/05/21 04:07:33;;;;;;;2.40;1.25;;;;;;;28.21;20.70;98171.53;5086324;28;20040;-91
2021/05/21 04:10:00;;;;;;;1.42;1.20;;;;;;;28.33;20.35;98169.88;5086780;28;20032;-92
2021/05/21 04:12:27;;;;;;;2.40;1.02;;;;;;;28.62;19.66;98171.19;5081889;28;20504;-91
2021/05/21 04:14:54;;;;;;;1.27;1.00;;;;;;;28.77;19.56;98168.59;5090650;28;20379;-89
2021/05/21 04:17:20;;;;;;;2.30;1.60;;;;;;;28.72;19.82;98164.31;5086408;28;20059;-91
2021/05/21 04:19:47;;;;;;;2.35;1.30;;;;;;;28.44;20.57;98165.41;5089010;28;20054;-91
2021/05/21 04:22:13;;;;;;;2.00;1.30;;;;;;;28.56;21.43;98166.56;5090163;28;20027;-89
2021/05/21 04:24:40;;;;;;;8.55;3.65;;;;;;;28.86;21.17;98162.97;5084226;28;20028;-90
2021/05/21 04:27:07;;;;;;;6.00;3.90;;;;;;;29.17;21.14;98160.88;5091589;28;20392;-90
2021/05/21 04:29:33;;;;;;;3.97;2.80;;;;;;;29.35;20.50;98163.78;5086783;28;20521;-94
2021/05/21 04:32:01;;;;;;;4.50;2.67;;;;;;;29.52;20.95;98161.47;5088977;28;20032;-91
2021/05/21 04:34:27;;;;;;;3.95;2.80;;;;;;;29.62;20.89;98162.25;5085741;28;20198;-92
2021/05/21 04:36:54;;;;;;;6.22;3.28;;;;;;;29.53;20.93;98162.22;5085000;28;20093;-90
2021/05/21 04:39:20;;;;;;;3.47;1.65;;;;;;;29.63;20.67;98161.78;5085369;28;20032;-92
2021/05/21 04:41:46;;;;;;;3.10;2.22;;;;;;;29.68;20.75;98163.22;5087867;28;20503;-96
2021/05/21 04:44:12;;;;;;;4.45;1.77;;;;;;;29.83;21.13;98164.97;5087871;28;20029;-88
2021/05/21 04:46:39;;;;;;;3.35;1.45;;;;;;;30.04;21.12;98164.03;5087428;28;20387;-94
2021/05/21 04:49:05;;;;;;;1.92;1.50;;;;;;;29.88;21.34;98158.69;5088652;28;20032;-93
2021/05/21 04:51:31;;;;;;;1.48;1.10;;;;;;;29.61;21.26;98149.38;5088960;28;20027;-89
2021/05/21 04:54:04;;;;;;;2.95;1.65;;;;;;;29.81;21.35;98156.16;5087795;28;20084;-88
2021/05/21 04:56:30;;;;;;;1.98;1.50;;;;;;;30.20;20.92;98153.63;5083079;28;20028;-88
2021/05/21 04:58:56;;;;;;;1.30;1.20;;;;;;;29.93;20.73;98143.91;5084534;28;20687;-90
2021/05/21 05:01:23;;;;;;;1.63;1.33;;;;;;;29.84;21.12;98151.59;5086911;28;20504;-88
2021/05/21 05:03:49;;;;;;;1.95;1.05;;;;;;;30.25;20.72;98153.75;5086166;28;20077;-90
2021/05/21 05:06:15;;;;;;;1.70;1.10;;;;;;;30.69;20.42;98146.44;5100204;28;20537;-87
2021/05/21 05:08:41;;;;;;;1.65;1.38;;;;;;;30.75;20.16;98150.22;5086032;28;20028;-85
2021/05/21 05:11:07;;;;;;;1.90;1.30;;;;;;;30.70;20.97;98156.53;5087789;28;20032;-87
2021/05/21 05:13:33;;;;;;;1.58;1.27;;;;;;;30.84;20.52;98151.44;5085976;28;20032;-86
2021/05/21 05:15:59;;;;;;;1.05;0.90;;;;;;;30.79;19.92;98158.53;5080586;28;20035;-88
2021/05/21 05:18:25;;;;;;;1.35;1.15;;;;;;;31.05;20.34;98147.59;5090264;28;20052;-87
2021/05/21 05:20:51;;;;;;;1.13;1.00;;;;;;;31.45;20.48;98139.50;5092111;28;20032;-87
2021/05/21 05:23:18;;;;;;;3.63;1.10;;;;;;;31.00;20.67;98148.22;5082508;28;20025;-87
2021/05/21 05:25:46;;;;;;;0.82;0.80;;;;;;;31.11;20.73;98142.84;5087569;28;20040;-87
2021/05/21 05:28:12;;;;;;;1.15;0.98;;;;;;;31.30;19.40;98139.41;5086117;28;20506;-91
2021/05/21 05:30:39;;;;;;;1.73;0.88;;;;;;;31.44;19.45;98137.91;5088777;28;20376;-90
2021/05/21 05:33:06;;;;;;;1.23;0.90;;;;;;;31.84;19.44;98148.81;5092971;28;20070;-91
2021/05/21 05:35:32;;;;;;;1.77;0.60;;;;;;;32.45;19.67;98139.44;5088108;28;20043;-89
2021/05/21 05:37:58;;;;;;;1.30;0.82;;;;;;;32.76;18.79;98138.97;5088092;28;20064;-92
2021/05/21 05:40:25;;;;;;;0.70;0.70;;;;;;;32.07;18.59;98140.28;5088378;28;20040;-93
2021/05/21 05:42:51;;;;;;;0.82;0.80;;;;;;;31.75;20.01;98146.84;5092882;28;20024;-93
2021/05/21 05:45:17;;;;;;;0.80;0.80;;;;;;;32.34;19.78;98144.13;5090918;28;20072;-93
2021/05/21 05:47:43;;;;;;;1.48;0.75;;;;;;;32.62;19.64;98139.75;5087490;28;20047;-90
2021/05/21 05:50:10;;;;;;;0.75;0.75;;;;;;;33.18;18.91;98141.44;5093475;28;20568;-90
2021/05/21 05:52:36;;;;;;;1.10;0.70;;;;;;;33.73;18.04;98139.38;5093233;28;20082;-90
2021/05/21 05:55:02;;;;;;;0.60;0.50;;;;;;;34.08;17.43;98133.59;5089663;28;20032;-90
2021/05/21 05:57:28;;;;;;;1.10;0.77;;;;;;;34.23;17.46;98136.34;5090361;28;20376;-90
2021/05/21 05:59:54;;;;;;;0.70;0.70;;;;;;;33.57;17.80;98130.63;5093299;28;20063;-90
2021/05/21 06:02:20;;;;;;;0.73;0.63;;;;;;;33.80;17.70;98136.09;5094672;28;20050;-90
2021/05/21 06:04:46;;;;;;;1.48;0.77;;;;;;;34.10;17.38;98133.88;5093298;28;20040;-90
2021/05/21 06:07:12;;;;;;;1.00;0.60;;;;;;;34.22;17.35;98127.00;5093481;28;20514;-90
2021/05/21 06:09:38;;;;;;;1.50;0.70;;;;;;;33.95;16.39;98141.72;5093525;28;20047;-90
2021/05/21 06:12:05;;;;;;;0.95;0.85;;;;;;;33.25;17.40;98126.81;5094100;28;20075;-89
2021/05/21 06:14:31;;;;;;;1.05;0.60;;;;;;;33.29;16.91;98125.31;5090659;28;20041;-90
2021/05/21 06:16:57;;;;;;;1.00;0.47;;;;;;;33.50;18.20;98131.00;5090499;28;20134;-90
2021/05/21 06:19:23;;;;;;;0.75;0.65;;;;;;;33.63;16.80;98125.78;5094529;28;20036;-90
2021/05/21 06:21:49;;;;;;;0.60;0.50;;;;;;;33.84;17.36;98127.34;5093814;28;20032;-90
2021/05/21 06:24:16;;;;;;;0.63;0.50;;;;;;;34.22;16.35;98127.00;5093061;28;20028;-91
2021/05/21 06:27:29;;;;;;;0.82;0.43;;;;;;;34.32;16.51;98130.47;5093456;28;20048;-90
2021/05/21 06:29:29;;;;;;;0.80;0.43;;;;;;;34.50;16.88;98124.41;5081861;28;20036;-90
2021/05/21 06:31:55;;;;;;;1.00;0.43;;;;;;;34.51;16.09;98121.09;5091855;28;20088;-90
2021/05/21 06:34:22;;;;;;;0.63;0.50;;;;;;;34.12;16.08;98114.22;5090105;28;20123;-90
2021/05/21 06:36:48;;;;;;;0.75;0.50;;;;;;;34.31;16.40;98115.44;5090233;28;20035;-89
2021/05/21 06:39:14;;;;;;;0.70;0.50;;;;;;;34.36;15.48;98106.16;5080262;28;20028;-90
2021/05/21 06:41:40;;;;;;;0.47;0.45;;;;;;;34.50;16.17;98105.25;5089160;28;20522;-90
2021/05/21 06:44:06;;;;;;;0.20;0.20;;;;;;;34.73;16.08;98098.47;5092747;28;20545;-91
2021/05/21 06:46:32;;;;;;;0.55;0.40;;;;;;;34.29;15.92;98097.25;5088267;28;20032;-90
2021/05/21 06:48:58;;;;;;;1.67;0.47;;;;;;;34.27;16.37;98099.84;5093116;28;20040;-90
2021/05/21 06:51:24;;;;;;;0.40;0.38;;;;;;;34.37;15.82;98099.19;5091290;28;20032;-90
2021/05/21 06:53:50;;;;;;;0.50;0.30;;;;;;;34.56;15.54;98088.22;5091465;28;20076;-90
2021/05/21 06:56:17;;;;;;;0.85;0.35;;;;;;;33.77;16.82;98076.50;5091334;28;21877;-90
2021/05/21 06:58:43;;;;;;;0.35;0.30;;;;;;;33.61;18.03;98072.16;5086160;28;20050;-89
2021/05/21 07:01:09;;;;;;;0.30;0.30;;;;;;;34.09;17.34;98072.47;5089598;28;20387;-90
2021/05/21 07:03:35;;;;;;;0.63;0.30;;;;;;;34.14;16.78;98071.75;5091105;28;20024;-89
2021/05/21 07:06:01;;;;;;;3.83;0.38;;;;;;;34.26;16.16;98064.09;5090970;28;20044;-90
2021/05/21 07:08:28;;;;;;;0.20;0.20;;;;;;;34.24;16.14;98063.81;5089074;28;20054;-89
2021/05/21 07:10:54;;;;;;;0.20;0.20;;;;;;;33.63;15.69;98057.44;5090384;28;20086;-89
2021/05/21 07:13:21;;;;;;;0.30;0.25;;;;;;;33.30;17.48;98055.72;5091096;28;20082;-89
2021/05/21 07:15:47;;;;;;;0.20;0.20;;;;;;;33.77;17.05;98063.03;5089541;28;20032;-90
2021/05/21 07:18:14;;;;;;;0.30;0.30;;;;;;;33.27;16.22;98041.69;5083568;28;20496;-89
2021/05/21 07:20:45;;;;;;;0.85;0.28;;;;;;;32.78;17.55;98053.13;5091842;28;20419;-90
2021/05/21 07:23:11;;;;;;;0.82;0.30;;;;;;;32.06;18.34;98049.88;5092180;28;20028;-89
2021/05/21 07:25:38;;;;;;;0.47;0.30;;;;;;;32.18;18.27;98045.97;5089161;28;20051;-89
2021/05/21 07:28:04;;;;;;;0.30;0.30;;;;;;;31.40;17.40;98049.31;5085544;28;20036;-89
2021/05/21 07:30:30;;;;;;;0.17;0.17;;;;;;;32.19;16.81;98038.19;5085748;28;20036;-90
2021/05/21 07:32:56;;;;;;;0.90;0.20;;;;;;;32.87;17.46;98035.94;5086797;28;20036;-88
2021/05/21 07:35:24;;;;;;;0.10;0.10;;;;;;;33.05;15.63;98042.19;5090623;28;20553;-88
2021/05/21 07:37:51;;;;;;;0.20;0.20;;;;;;;32.86;15.67;98037.25;5090676;28;20078;-89
2021/05/21 07:40:18;;;;;;;0.20;0.20;;;;;;;31.79;17.53;98035.91;5084363;28;20067;-90
2021/05/21 07:42:45;;;;;;;0.10;0.10;;;;;;;32.80;16.60;98027.81;5083587;28;20372;-91
2021/05/21 07:45:12;;;;;;;0.15;0.15;;;;;;;33.92;16.87;98028.75;5088995;28;20051;-89
2021/05/21 07:47:38;;;;;;;0.10;0.10;;;;;;;33.79;15.73;98034.06;5106552;28;20144;-90
2021/05/21 07:50:06;;;;;;;0.03;0.00;;;;;;;34.01;14.98;98023.66;5093492;28;20032;-89
2021/05/21 07:52:32;;;;;;;0.13;0.10;;;;;;;34.11;15.58;98027.16;5089349;28;20032;-90
2021/05/21 07:55:00;;;;;;;0.10;0.10;;;;;;;34.24;15.14;98026.75;5086364;28;20036;-88
2021/05/21 07:57:26;;;;;;;0.22;0.10;;;;;;;33.78;15.68;98023.94;5087695;28;20033;-89
2021/05/21 07:59:52;;;;;;;0.17;0.17;;;;;;;32.76;16.34;98025.19;5088163;28;20028;-89
2021/05/21 08:02:18;;;;;;;0.22;0.20;;;;;;;33.31;15.37;98020.28;5085910;28;20029;-89
2021/05/21 08:04:44;;;;;;;0.20;0.10;;;;;;;32.32;16.22;98030.16;5083879;28;20573;-88
2021/05/21 08:07:10;;;;;;;0.10;0.10;;;;;;;32.47;14.58;98022.38;5094544;28;20028;-88
2021/05/21 08:09:39;;;;;;;2.20;1.05;;;;;;;32.67;15.75;98011.88;5092120;28;20020;-88
2021/05/21 08:12:06;;;;;;;0.00;0.00;;;;;;;33.14;15.29;98015.66;5088210;28;20055;-89
2021/05/21 08:14:33;;;;;;;0.22;0.10;;;;;;;32.24;16.33;98004.22;5090033;28;20028;-91
2021/05/21 08:16:59;;;;;;;0.05;0.00;;;;;;;32.94;16.04;98005.03;5102232;28;20669;-88
2021/05/21 08:19:25;;;;;;;0.20;0.10;;;;;;;33.43;15.34;98004.91;5090492;28;20075;-89
2021/05/21 08:21:52;;;;;;;0.73;0.10;;;;;;;33.34;15.38;98004.28;5085249;28;20024;-89
2021/05/21 08:24:19;;;;;;;0.10;0.10;;;;;;;33.87;15.53;98009.53;5096648;28;20090;-89
2021/05/21 08:26:45;;;;;;;1.10;0.10;;;;;;;34.12;14.96;98003.06;5088778;28;20478;-89
2021/05/21 08:29:11;;;;;;;0.30;0.17;;;;;;;34.54;13.89;98008.09;5091693;28;20489;-87
2021/05/21 08:31:37;;;;;;;1.00;0.10;;;;;;;33.63;14.77;97995.56;5088977;28;20676;-88
2021/05/21 08:34:03;;;;;;;0.10;0.10;;;;;;;34.07;14.31;97986.72;5089458;28;20571;-87
2021/05/21 08:36:29;;;;;;;0.55;0.10;;;;;;;33.88;13.97;97986.25;5088946;28;20039;-91
2021/05/21 08:38:55;;;;;;;0.65;0.10;;;;;;;34.14;15.40;97988.31;5089519;28;20530;-91
2021/05/21 08:41:23;;;;;;;0.10;0.10;;;;;;;33.68;14.11;97982.69;5090778;28;20032;-91
2021/05/21 08:43:50;;;;;;;0.10;0.10;;;;;;;33.68;14.62;97974.16;5087556;28;20024;-90
2021/05/21 08:46:18;;;;;;;0.00;0.00;;;;;;;34.11;15.26;97969.38;5090100;28;20040;-90
2021/05/21 08:48:45;;;;;;;0.10;0.10;;;;;;;34.36;16.19;97972.16;5087085;28;20066;-92
2021/05/21 08:51:14;;;;;;;0.08;0.08;;;;;;;34.26;14.88;97984.28;5085673;28;20040;-92
2021/05/21 08:53:41;;;;;;;0.20;0.20;;;;;;;33.72;14.08;97966.16;5085321;28;20029;-91
2021/05/21 08:56:08;;;;;;;0.20;0.20;;;;;;;33.28;14.43;97964.34;5094868;28;20044;-93
2021/05/21 08:58:35;;;;;;;0.10;0.10;;;;;;;33.03;15.01;97969.97;5096113;28;20039;-92
2021/05/21 09:01:03;;;;;;;0.10;0.10;;;;;;;33.07;14.70;97959.94;5089748;28;20035;-92
2021/05/21 09:03:31;;;;;;;0.63;0.13;;;;;;;33.52;15.25;97957.59;5091264;28;20488;-90
2021/05/21 09:06:30;;;;;;;0.10;0.08;;;;;;;32.47;15.05;97939.97;5093548;28;20048;-88
2021/05/21 09:08:57;;;;;;;0.10;0.10;;;;;;;31.73;17.18;97939.28;5085828;28;20044;-90
2021/05/21 09:11:28;;;;;;;0.10;0.10;;;;;;;31.00;16.46;97932.69;5090750;28;20032;-91
2021/05/21 09:14:06;;;;;;;0.10;0.10;;;;;;;31.85;15.72;97949.56;5086243;28;20035;-91
2021/05/21 09:16:39;;;;;;;0.03;0.03;;;;;;;32.75;15.67;97944.00;5082532;28;20028;-92
2021/05/21 09:19:19;;;;;;;0.10;0.10;;;;;;;33.26;14.58;97943.34;5071867;28;20037;-90
2021/05/21 09:22:06;;;;;;;0.10;0.10;;;;;;;33.72;14.71;97934.81;5071505;28;20036;-91
2021/05/21 09:24:38;;;;;;;0.20;0.20;;;;;;;34.08;13.72;97934.91;5070871;28;20047;-89
2021/05/21 09:27:06;;;;;;;0.20;0.13;;;;;;;34.18;13.29;97938.34;5070257;28;20082;-90
2021/05/21 09:29:46;;;;;;;0.00;0.00;;;;;;;33.33;15.22;97920.94;5073722;28;20082;-89
2021/05/21 09:32:16;;;;;;;0.08;0.08;;;;;;;33.28;14.76;97923.75;5068174;28;20037;-90
2021/05/21 09:34:47;;;;;;;0.10;0.10;;;;;;;33.98;13.61;97924.19;5072809;28;20119;-90
2021/05/21 09:37:24;;;;;;;0.20;0.10;;;;;;;34.46;13.31;97918.56;5073847;28;20123;-89
2021/05/21 09:40:14;;;;;;;0.35;0.35;;;;;;;34.18;12.79;97909.84;5071941;28;20104;-92
2021/05/21 09:42:45;;;;;;;0.10;0.10;;;;;;;34.52;13.17;97907.97;5070408;28;20029;-91
2021/05/21 09:45:21;;;;;;;;;;;;;;;34.04;13.08;97911.56;5069294;28;20111;-90
2021/05/21 09:47:52;;;;;;;0.10;0.00;;;;;;;33.55;13.73;97905.41;5073466;28;19931;-90
2021/05/21 09:50:29;;;;;;;0.00;0.00;;;;;;;33.37;13.70;97915.78;5066892;28;20034;-89
2021/05/21 09:53:01;;;;;;;0.13;0.00;;;;;;;33.61;13.43;97907.00;5074254;28;20563;-90
2021/05/21 09:55:33;;;;;;;0.10;0.10;;;;;;;33.59;12.66;97903.09;5069798;28;20048;-93
2021/05/21 09:57:59;;;;;;;0.95;0.00;;;;;;;33.69;13.46;97902.44;5074842;28;20029;-89
2021/05/21 10:00:25;;;;;;;0.10;0.10;;;;;;;34.13;12.97;97899.16;5073350;28;20033;-90
2021/05/21 10:02:52;;;;;;;0.00;0.00;;;;;;;34.33;12.35;97901.13;5069499;28;20021;-91
2021/05/21 10:05:18;;;;;;;0.00;0.00;;;;;;;33.53;13.29;97894.53;5071985;28;20039;-91
2021/05/21 10:07:47;;;;;;;0.10;0.10;;;;;;;32.31;14.27;97889.34;5073475;28;20508;-90
2021/05/21 10:10:14;;;;;;;1.65;0.00;;;;;;;31.93;14.32;97879.72;5073215;28;20021;-91
2021/05/21 10:12:43;;;;;;;0.00;0.00;;;;;;;32.70;13.89;97877.25;5071539;28;20027;-90
2021/05/21 10:15:09;;;;;;;0.10;0.00;;;;;;;33.27;13.29;97880.25;5070714;28;20046;-93
2021/05/21 10:17:37;;;;;;;0.00;0.00;;;;;;;32.80;12.19;97875.03;5081682;28;20048;-91
2021/05/21 10:20:05;;;;;;;0.00;0.00;;;;;;;33.06;13.77;97863.72;5090644;28;20376;-91
2021/05/21 10:22:39;;;;;;;0.00;0.00;;;;;;;33.09;12.96;97859.88;5092516;28;20089;-89
2021/05/21 10:25:13;;;;;;;0.05;0.00;;;;;;;32.90;13.21;97870.78;5093613;28;20056;-88
2021/05/21 10:27:42;;;;;;;1.85;0.00;;;;;;;32.77;13.42;97869.59;5092792;28;20043;-89
2021/05/21 10:30:10;;;;;;;0.47;0.00;;;;;;;33.73;12.58;97870.84;5086020;28;20570;-95
2021/05/21 10:32:37;;;;;;;0.00;0.00;;;;;;;34.35;12.73;97858.63;5094609;28;20142;-93
2021/05/21 10:35:21;;;;;;;0.05;0.05;;;;;;;34.68;11.57;97856.72;5092565;28;20035;-92
2021/05/21 10:37:48;;;;;;;0.00;0.00;;;;;;;33.78;12.99;97850.97;5091388;28;20040;-91
2021/05/21 10:40:23;;;;;;;0.00;0.00;;;;;;;33.44;11.74;97846.25;5091534;28;20103;-88
2021/05/21 10:42:51;;;;;;;0.08;0.00;;;;;;;33.47;13.16;97833.84;5094028;28;20039;-92
2021/05/21 10:45:22;;;;;;;0.10;0.00;;;;;;;34.17;12.06;97834.16;5093863;28;20471;-90
2021/05/21 10:48:00;;;;;;;0.77;0.05;;;;;;;34.93;12.26;97822.84;5093351;28;20024;-93
2021/05/21 10:50:34;;;;;;;0.35;0.00;;;;;;;34.98;12.12;97811.47;5090662;28;20091;-90
2021/05/21 10:53:08;;;;;;;0.10;0.10;;;;;;;35.10;12.93;97818.00;5091020;28;20032;-90
2021/05/21 10:55:52;;;;;;;2.47;0.10;;;;;;;35.46;11.37;97816.19;5091476;28;20036;-93
2021/05/21 10:58:29;;;;;;;0.10;0.00;;;;;;;36.06;12.01;97810.50;5090219;28;20387;-88
2021/05/21 11:01:13;;;;;;;0.20;0.10;;;;;;;36.04;11.45;97793.09;5091841;28;20020;-89
2021/05/21 11:04:06;;;;;;;0.70;0.10;;;;;;;36.24;10.79;97794.06;5090799;28;20028;-91
2021/05/21 11:06:49;;;;;;;0.00;0.00;;;;;;;34.65;11.77;97795.03;5092228;28;20039;-90
2021/05/21 11:09:18;;;;;;;0.43;0.10;;;;;;;35.01;12.17;97786.81;5089268;28;20035;-91
2021/05/21 11:11:53;;;;;;;0.00;0.00;;;;;;;35.27;11.96;97793.09;5089328;28;20078;-91
2021/05/21 11:14:49;;;;;;;0.10;0.10;;;;;;;34.35;11.59;97793.84;5086078;28;20027;-94
2021/05/21 11:17:24;;;;;;;0.20;0.00;;;;;;;34.65;13.01;97783.63;5093038;28;20142;-91
2021/05/21 11:19:59;;;;;;;0.05;0.00;;;;;;;34.77;11.92;97780.78;5093676;28;20048;-92
2021/05/21 11:22:37;;;;;;;0.85;0.13;;;;;;;35.25;12.00;97778.56;5094122;28;20093;-91
2021/05/21 11:25:06;;;;;;;0.00;0.00;;;;;;;35.39;11.17;97766.09;5093639;28;20055;-92
2021/05/21 11:27:34;;;;;;;0.05;0.05;;;;;;;35.21;12.45;97764.56;5093855;28;20071;-91
2021/05/21 11:30:07;;;;;;;0.08;0.08;;;;;;;35.89;11.72;97760.38;5081808;28;20033;-92
2021/05/21 11:32:33;;;;;;;0.10;0.10;;;;;;;36.63;10.91;97766.13;5077092;28;20032;-92
2021/05/21 11:34:59;;;;;;;0.00;0.00;;;;;;;35.95;11.61;97761.91;5093849;28;20024;-92
2021/05/21 11:37:27;;;;;;;0.10;0.10;;;;;;;36.47;11.29;97752.66;5094053;28;20040;-92